createdAt,value
2018-04-17T00:02:06.994Z,18.33
2018-04-17T00:04:35.238Z,19.37
2018-04-17T00:07:03.464Z,20.27
2018-04-17T00:09:31.711Z,24.77
2018-04-17T00:12:00.707Z,21.70
2018-04-17T00:14:28.951Z,25.83
2018-04-17T00:16:57.192Z,19.17
2018-04-17T00:19:25.439Z,20.87
2018-04-17T00:21:53.673Z,21.33
2018-04-17T00:24:21.915Z,21.33
2018-04-17T00:26:50.145Z,20.40
2018-04-17T00:29:19.163Z,22.03
2018-04-17T00:31:47.411Z,21.13
2018-04-17T00:34:15.673Z,20.03
2018-04-17T00:36:44.673Z,18.63
2018-04-17T00:39:13.671Z,18.90
2018-04-17T00:41:41.915Z,17.53
2018-04-17T00:44:10.143Z,16.77
2018-04-17T00:46:38.394Z,18.63
2018-04-17T00:49:06.623Z,17.67
2018-04-17T00:51:34.862Z,18.30
2018-04-17T00:54:03.996Z,16.33
2018-04-17T00:56:32.234Z,17.23
2018-04-17T00:59:00.467Z,17.17
2018-04-17T01:01:29.478Z,17.00
2018-04-17T01:03:57.703Z,18.60
2018-04-17T01:06:25.952Z,13.40
2018-04-17T01:08:54.179Z,16.67
2018-04-17T01:11:23.186Z,20.00
2018-04-17T01:13:51.416Z,15.20
2018-04-17T01:16:19.658Z,16.40
2018-04-17T01:18:47.886Z,15.90
2018-04-17T01:21:16.132Z,18.03
2018-04-17T01:23:44.363Z,17.67
2018-04-17T01:26:12.611Z,14.50
2018-04-17T01:28:40.841Z,16.70
2018-04-17T01:31:09.079Z,17.83
2018-04-17T01:33:37.307Z,18.87
2018-04-17T01:36:05.551Z,17.90
2018-04-17T01:38:33.786Z,17.93
2018-04-17T01:41:02.796Z,17.50
2018-04-17T01:43:31.030Z,17.10
2018-04-17T01:45:59.271Z,20.03
2018-04-17T01:48:27.498Z,21.97
2018-04-17T01:50:56.490Z,20.27
2018-04-17T01:53:25.507Z,20.13
2018-04-17T01:55:53.740Z,18.90
2018-04-17T01:58:21.979Z,16.30
2018-04-17T02:00:50.206Z,15.60
2018-04-17T02:03:20.030Z,15.23
2018-04-17T02:05:48.260Z,14.53
2018-04-17T02:08:16.508Z,15.37
2018-04-17T02:10:44.737Z,14.23
2018-04-17T02:13:13.747Z,13.03
2018-04-17T02:15:41.981Z,15.13
2018-04-17T02:18:10.219Z,17.07
2018-04-17T02:20:38.450Z,16.10
2018-04-17T02:23:07.578Z,17.17
2018-04-17T02:25:35.807Z,17.70
2018-04-17T02:28:04.047Z,18.93
2018-04-17T02:30:32.281Z,18.87
2018-04-17T02:33:00.523Z,16.33
2018-04-17T02:35:28.754Z,16.60
2018-04-17T02:37:56.994Z,16.70
2018-04-17T02:40:25.999Z,20.60
2018-04-17T02:42:54.239Z,17.97
2018-04-17T02:45:22.832Z,18.10
2018-04-17T02:47:51.835Z,15.63
2018-04-17T02:50:20.830Z,17.30
2018-04-17T02:52:49.073Z,16.93
2018-04-17T02:55:17.302Z,15.97
2018-04-17T02:57:45.552Z,18.03
2018-04-17T03:00:13.784Z,19.00
2018-04-17T03:02:42.014Z,20.47
2018-04-17T03:05:10.247Z,20.90
2018-04-17T03:07:39.256Z,16.90
2018-04-17T03:10:08.251Z,17.43
2018-04-17T03:12:36.483Z,20.70
2018-04-17T03:15:04.727Z,19.37
2018-04-17T03:17:33.260Z,20.97
2018-04-17T03:20:01.495Z,20.07
2018-04-17T03:22:29.722Z,20.90
2018-04-17T03:24:58.740Z,24.57
2018-04-17T03:27:26.975Z,25.20
2018-04-17T03:29:55.986Z,24.20
2018-04-17T03:32:24.219Z,24.97
2018-04-17T03:34:52.466Z,20.90
2018-04-17T03:37:20.692Z,24.70
2018-04-17T03:39:49.694Z,21.20
2018-04-17T03:42:17.931Z,20.40
2018-04-17T03:44:46.171Z,21.83
2018-04-17T03:47:14.395Z,18.00
2018-04-17T03:49:43.408Z,20.53
2018-04-17T03:52:11.639Z,21.97
2018-04-17T03:54:40.338Z,19.53
2018-04-17T03:57:08.540Z,18.47
2018-04-17T03:59:36.784Z,20.07
2018-04-17T04:02:05.015Z,20.97
2018-04-17T04:04:33.744Z,20.50
2018-04-17T04:07:01.939Z,22.47
2018-04-17T04:09:30.955Z,24.47
2018-04-17T04:11:59.182Z,23.90
2018-04-17T04:14:27.407Z,24.77
2018-04-17T04:17:07.619Z,24.27
2018-04-17T04:19:48.391Z,22.87
2018-04-17T04:22:29.458Z,23.53
2018-04-17T04:25:20.356Z,25.47
2018-04-17T04:27:48.579Z,23.23
2018-04-17T04:30:16.835Z,26.50
2018-04-17T04:32:45.071Z,30.00
2018-04-17T04:35:13.304Z,27.87
2018-04-17T04:37:41.549Z,32.67
2018-04-17T04:40:09.778Z,30.97
2018-04-17T04:42:38.067Z,29.50
2018-04-17T04:45:06.295Z,26.67
2018-04-17T04:47:34.547Z,30.50
2018-04-17T04:50:02.784Z,26.47
2018-04-17T04:52:31.018Z,25.90
2018-04-17T04:54:59.252Z,25.87
2018-04-17T04:57:28.297Z,27.13
2018-04-17T04:59:56.522Z,27.10
2018-04-17T05:02:25.535Z,26.37
2018-04-17T05:04:53.813Z,25.80
2018-04-17T05:07:22.010Z,25.20
2018-04-17T05:09:50.247Z,25.90
2018-04-17T05:12:18.493Z,26.47
2018-04-17T05:14:46.722Z,27.70
2018-04-17T05:17:14.971Z,29.50
2018-04-17T05:19:43.208Z,27.33
2018-04-17T05:22:11.442Z,33.07
2018-04-17T05:24:39.678Z,32.20
2018-04-17T05:27:08.685Z,30.57
2018-04-17T05:29:36.915Z,32.43
2018-04-17T05:32:05.179Z,31.97
2018-04-17T05:34:33.437Z,28.63
2018-04-17T05:37:01.663Z,27.80
2018-04-17T05:39:30.670Z,29.93
2018-04-17T05:41:58.958Z,28.10
2018-04-17T05:44:27.198Z,27.77
2018-04-17T05:46:56.192Z,28.87
2018-04-17T05:49:25.203Z,28.13
2018-04-17T05:51:53.441Z,28.57
2018-04-17T05:54:21.679Z,27.13
2018-04-17T05:56:49.940Z,25.93
2018-04-17T05:59:18.218Z,26.93
2018-04-17T06:01:46.448Z,27.07
2018-04-17T06:04:14.692Z,28.47
2018-04-17T06:06:42.923Z,27.37
2018-04-17T06:09:11.167Z,29.87
2018-04-17T06:11:39.405Z,26.77
